Milwaukee, Wisconsin
Traffic Map
Current Weather Conditions
Milwaukee, Wisconsin
Broken Clouds
Broken Clouds
-2°
Feels Like: -2°
Wind Chill: -2° Ceiling: 2900
Heat Index: -2° Visibility: 10mi
Dew Point: -8° Wind: 0mph
Humidity: 64% Direction: ° ()
Pressure: 30.27in Gusts: 0mph
Raw Report DataKMKE 200205Z 00000KT 10SM BKN029 M02/M08 A3027 RMK AO2 T10171078
Traffic Incident Summary
Active as of:
Severity:
Category:
InformationThere was an issue retrieving the traffic information for this location. Please try a different location or try again shortly.
Advertisements
Track Severe Weather on mobile